Time;durP1;ratioP1;P1;durP2;ratioP2;P2;SDS_P1;SDS_P2;PMS_P1;PMS_P2;Temp;Humidity;BMP_temperature;BMP_pressure;BME280_temperature;BME280_humidity;BME280_pressure;Samples;Min_cycle;Max_cycle;Signal;HPM_P1;HPM_P2
2022/09/14 00:01:33;;;;;;;7.47;4.70;;;;;;;16.14;100.00;99926.97;5053693;28;20028;-70
2022/09/14 00:04:10;;;;;;;8.85;4.90;;;;;;;15.86;100.00;99986.50;5052372;28;20025;-69
2022/09/14 00:06:35;;;;;;;11.13;6.50;;;;;;;15.37;100.00;99836.03;5053724;28;20491;-69
2022/09/14 00:09:02;;;;;;;7.43;4.75;;;;;;;16.35;100.00;99977.16;5053374;28;20040;-69
2022/09/14 00:11:30;;;;;;;12.00;6.65;;;;;;;16.20;100.00;99988.22;5053554;28;20032;-69
2022/09/14 00:13:58;;;;;;;24.15;14.10;;;;;;;15.73;100.00;99907.72;5053428;28;20025;-69
2022/09/14 00:16:29;;;;;;;19.48;11.15;;;;;;;16.43;100.00;99980.16;5053205;28;20090;-68
2022/09/14 00:19:04;;;;;;;16.38;10.18;;;;;;;16.23;100.00;99978.63;5052221;28;20021;-69
2022/09/14 00:21:30;;;;;;;16.77;9.68;;;;;;;16.00;100.00;99976.41;5053137;28;20041;-69
2022/09/14 00:23:56;;;;;;;10.15;7.38;;;;;;;16.09;100.00;99975.09;5053245;28;20044;-68
2022/09/14 00:26:22;;;;;;;8.15;5.78;;;;;;;15.78;100.00;99921.13;5052919;28;20036;-68
2022/09/14 00:28:53;;;;;;;10.20;5.88;;;;;;;15.73;100.00;99956.44;5053060;28;20511;-69
2022/09/14 00:31:20;;;;;;;9.65;5.60;;;;;;;15.65;100.00;99904.72;5051350;28;20028;-69
2022/09/14 00:33:47;;;;;;;7.95;5.60;;;;;;;16.02;100.00;99973.75;5052732;28;20039;-69
2022/09/14 00:36:16;;;;;;;7.63;4.88;;;;;;;15.80;100.00;99983.41;5052930;28;20159;-69
2022/09/14 00:38:42;;;;;;;5.45;3.65;;;;;;;15.50;100.00;99912.25;5052655;28;20036;-69
2022/09/14 00:41:12;;;;;;;7.75;3.50;;;;;;;15.21;100.00;99907.66;5052711;28;20037;-70
2022/09/14 00:43:55;;;;;;;4.97;3.63;;;;;;;16.09;100.00;99990.47;5052892;28;20436;-69
2022/09/14 00:46:21;;;;;;;5.40;3.58;;;;;;;15.30;100.00;99924.31;5052328;28;20067;-69
2022/09/14 00:48:47;;;;;;;5.70;3.33;;;;;;;15.55;100.00;99917.97;5051304;28;20040;-70
2022/09/14 00:51:15;;;;;;;4.95;3.10;;;;;;;15.89;100.00;99986.34;5052147;28;20029;-69
2022/09/14 00:53:43;;;;;;;4.47;3.33;;;;;;;15.93;100.00;99977.59;5051043;28;20076;-69
2022/09/14 00:56:09;;;;;;;5.82;3.10;;;;;;;15.59;100.00;99937.41;5052660;28;20036;-69
2022/09/14 00:58:35;;;;;;;4.63;2.85;;;;;;;15.83;100.00;99984.06;5052786;28;20025;-69
2022/09/14 01:01:01;;;;;;;4.20;3.30;;;;;;;15.29;100.00;99908.13;5052261;28;20548;-69
2022/09/14 01:03:27;;;;;;;6.07;3.65;;;;;;;15.47;100.00;99976.44;5051974;28;20488;-69
2022/09/14 01:06:09;;;;;;;6.63;3.50;;;;;;;15.96;100.00;99994.56;5052444;28;20671;-69
2022/09/14 01:09:03;;;;;;;4.80;3.20;;;;;;;15.22;100.00;99993.84;5051075;28;20029;-69
2022/09/14 01:11:56;;;;;;;4.30;3.17;;;;;;;15.39;100.00;99993.88;5052174;28;20061;-68
2022/09/14 01:14:34;;;;;;;6.43;3.40;;;;;;;15.71;100.00;99976.19;5052321;28;20033;-69
2022/09/14 01:17:23;;;;;;;4.15;3.08;;;;;;;15.36;100.00;99975.25;5051714;28;20028;-70
2022/09/14 01:20:06;;;;;;;3.67;2.97;;;;;;;15.70;100.00;99987.31;5053288;28;20025;-69
2022/09/14 01:22:46;;;;;;;4.75;3.17;;;;;;;15.52;100.00;99956.56;5051934;28;20112;-69
2022/09/14 01:25:36;;;;;;;4.20;2.92;;;;;;;15.65;100.00;99989.28;5050375;28;20032;-69
2022/09/14 01:28:15;;;;;;;4.03;3.35;;;;;;;15.19;100.00;99978.59;5050806;28;20029;-69
2022/09/14 01:30:42;;;;;;;4.38;3.45;;;;;;;14.56;100.00;99892.81;5051556;28;20059;-68
2022/09/14 01:33:21;;;;;;;3.78;3.10;;;;;;;15.68;100.00;99948.97;5050895;28;20403;-69
2022/09/14 01:35:54;;;;;;;5.43;3.22;;;;;;;15.63;100.00;99982.50;5051631;28;20097;-68
2022/09/14 01:38:28;;;;;;;5.28;3.33;;;;;;;14.91;100.00;99921.94;5050148;28;20060;-72
2022/09/14 01:40:57;;;;;;;4.43;3.42;;;;;;;15.71;100.00;99984.69;5051907;28;20052;-69
2022/09/14 01:43:32;;;;;;;7.82;3.47;;;;;;;15.51;100.00;99900.25;5051504;28;20044;-69
2022/09/14 01:46:10;;;;;;;3.45;3.15;;;;;;;15.33;100.00;99953.19;5051553;28;20036;-69
2022/09/14 01:48:57;;;;;;;4.88;3.22;;;;;;;14.86;100.00;99928.13;5051822;28;20060;-68
2022/09/14 01:51:30;;;;;;;7.32;4.72;;;;;;;14.63;100.00;99919.81;5051641;28;20116;-69
2022/09/14 01:54:04;;;;;;;11.02;5.68;;;;;;;15.85;100.00;99991.69;5051390;28;20047;-68
2022/09/14 01:56:36;;;;;;;29.25;17.90;;;;;;;14.98;100.00;99986.47;5051241;28;20043;-68
2022/09/14 01:59:12;;;;;;;25.98;16.08;;;;;;;14.69;100.00;99899.06;5051165;28;20112;-68
2022/09/14 02:01:45;;;;;;;36.33;21.33;;;;;;;14.98;100.00;99994.13;5048453;28;20110;-69
2022/09/14 02:04:14;;;;;;;37.55;21.92;;;;;;;14.95;100.00;99994.28;5051236;28;20047;-68
2022/09/14 02:06:44;;;;;;;34.55;20.17;;;;;;;14.31;100.00;99858.19;5051462;28;20036;-69
2022/09/14 02:09:15;;;;;;;34.28;18.73;;;;;;;14.21;100.00;99888.44;5050818;28;20035;-69
2022/09/14 02:11:41;;;;;;;33.60;18.65;;;;;;;14.66;100.00;99993.03;5051038;28;20355;-69
2022/09/14 02:14:06;;;;;;;26.65;14.35;;;;;;;14.74;100.00;99967.91;5050724;28;20029;-70
2022/09/14 02:16:32;;;;;;;21.52;11.13;;;;;;;14.65;100.00;99965.78;5037002;28;20036;-69
2022/09/14 02:19:00;;;;;;;20.45;11.55;;;;;;;13.93;100.00;99931.41;5029548;28;20064;-69
2022/09/14 02:21:28;;;;;;;22.08;11.15;;;;;;;14.34;100.00;99957.81;5029728;28;20558;-69
2022/09/14 02:23:54;;;;;;;17.58;10.05;;;;;;;14.72;100.00;99977.41;5030900;28;20057;-69
2022/09/14 02:26:21;;;;;;;13.77;8.95;;;;;;;14.37;100.00;99929.53;5030797;28;20566;-68
2022/09/14 02:28:47;;;;;;;14.65;8.75;;;;;;;14.85;100.00;99987.94;5030989;28;20037;-70
2022/09/14 02:31:15;;;;;;;13.95;6.72;;;;;;;14.71;100.00;99914.34;5039729;28;20029;-69
2022/09/14 02:33:59;;;;;;;10.50;6.53;;;;;;;14.80;100.00;99990.69;5050637;28;20033;-68
2022/09/14 02:36:52;;;;;;;9.88;5.60;;;;;;;14.53;100.00;99989.34;5049280;28;20025;-71
2022/09/14 02:39:43;;;;;;;9.15;6.53;;;;;;;15.14;100.00;99997.66;5049780;28;20036;-68
2022/09/14 02:42:27;;;;;;;15.17;7.90;;;;;;;14.71;100.00;99999.63;5048610;28;20048;-68
2022/09/14 02:44:55;;;;;;;15.73;7.97;;;;;;;15.01;100.00;99992.28;5050736;28;20102;-69
2022/09/14 02:47:40;;;;;;;13.48;7.28;;;;;;;14.97;100.00;99990.78;5050599;28;20036;-69
2022/09/14 02:50:19;;;;;;;11.60;7.43;;;;;;;14.31;100.00;99927.25;5050665;28;20111;-68
2022/09/14 02:52:44;;;;;;;13.65;7.32;;;;;;;15.10;100.00;99994.41;5049051;28;20999;-68
2022/09/14 02:55:16;;;;;;;14.00;6.78;;;;;;;14.96;100.00;99955.81;5048496;28;20120;-68
2022/09/14 02:58:05;;;;;;;12.20;7.10;;;;;;;14.90;100.00;99994.50;5048970;28;20021;-68
2022/09/14 03:00:34;;;;;;;18.13;8.52;;;;;;;14.23;100.00;99952.28;5050064;28;20062;-68
2022/09/14 03:02:59;;;;;;;13.93;7.07;;;;;;;14.98;100.00;99897.69;5050112;28;20032;-69
2022/09/14 03:05:25;;;;;;;25.92;12.35;;;;;;;13.95;100.00;99893.84;5050677;28;20498;-67
2022/09/14 03:07:51;;;;;;;38.70;17.50;;;;;;;14.65;100.00;99950.44;5049052;28;20124;-67
2022/09/14 03:10:16;;;;;;;36.85;18.30;;;;;;;14.02;100.00;99845.84;5049992;28;20055;-68
2022/09/14 03:12:41;;;;;;;44.70;21.95;;;;;;;14.03;100.00;99942.09;5047310;28;20029;-68
2022/09/14 03:15:07;;;;;;;54.38;26.23;;;;;;;14.15;100.00;99890.41;5049475;28;20122;-69
2022/09/14 03:17:33;;;;;;;44.28;22.80;;;;;;;14.23;100.00;99981.25;5048701;28;20487;-68
2022/09/14 03:19:58;;;;;;;45.28;22.38;;;;;;;14.40;100.00;100001.03;5048575;28;20037;-69
2022/09/14 03:22:24;;;;;;;29.92;12.80;;;;;;;16.42;100.00;99924.59;5048401;28;20195;-69
2022/09/14 03:24:49;;;;;;;26.73;14.00;;;;;;;15.73;100.00;99982.06;5049744;28;20040;-68
2022/09/14 03:27:14;;;;;;;28.85;13.50;;;;;;;14.72;100.00;99929.63;5049731;28;20526;-69
2022/09/14 03:29:40;;;;;;;21.98;11.02;;;;;;;13.60;100.00;99876.63;5050423;28;20036;-68
2022/09/14 03:32:05;;;;;;;18.92;9.45;;;;;;;14.21;100.00;99933.63;5037918;28;20048;-68
2022/09/14 03:34:31;;;;;;;12.55;5.32;;;;;;;13.83;100.00;99932.69;5029714;28;20479;-67
2022/09/14 03:36:56;;;;;;;9.02;5.30;;;;;;;14.24;100.00;99990.56;5028889;28;20052;-70
2022/09/14 03:39:22;;;;;;;10.50;4.85;;;;;;;13.60;100.00;99895.34;5029754;28;20029;-68
2022/09/14 03:41:47;;;;;;;9.90;4.35;;;;;;;13.13;100.00;99914.31;5041574;28;20032;-69
2022/09/14 03:44:12;;;;;;;9.45;5.22;;;;;;;13.59;100.00;99938.81;5050182;28;20033;-68
2022/09/14 03:46:38;;;;;;;7.70;5.15;;;;;;;13.42;100.00;99977.00;5049981;28;20037;-68
2022/09/14 03:49:04;;;;;;;9.68;5.03;;;;;;;14.16;100.00;99986.69;5049000;28;20471;-68
2022/09/14 03:51:30;;;;;;;10.20;5.10;;;;;;;13.83;100.00;99989.75;5041557;28;20021;-69
2022/09/14 03:53:56;;;;;;;6.85;4.53;;;;;;;14.44;100.00;99923.25;5045386;28;20056;-68
2022/09/14 03:56:22;;;;;;;10.88;5.35;;;;;;;13.72;100.00;99988.53;5049482;28;20053;-70
2022/09/14 03:58:49;;;;;;;11.93;5.85;;;;;;;13.85;100.00;100000.75;5049167;28;20036;-70
2022/09/14 04:01:18;;;;;;;13.00;6.68;;;;;;;13.57;100.00;99944.00;5049097;28;20040;-70
2022/09/14 04:03:45;;;;;;;12.43;7.63;;;;;;;13.65;100.00;100012.66;5049279;28;20033;-69
2022/09/14 04:06:11;;;;;;;12.18;7.85;;;;;;;13.86;100.00;100007.50;5049516;28;20021;-70
2022/09/14 04:08:39;;;;;;;14.85;7.53;;;;;;;13.60;100.00;99989.88;5049027;28;20551;-69
2022/09/14 04:11:07;;;;;;;12.07;7.32;;;;;;;13.58;100.00;99990.81;5048886;28;20029;-71
2022/09/14 04:13:32;;;;;;;13.52;7.18;;;;;;;13.60;100.00;100001.81;5047611;28;20121;-71
2022/09/14 04:15:58;;;;;;;13.48;7.38;;;;;;;13.41;100.00;99999.13;5049498;28;20116;-70
2022/09/14 04:18:25;;;;;;;13.52;7.38;;;;;;;13.33;100.00;99995.25;5049682;28;20037;-70
2022/09/14 04:20:58;;;;;;;10.23;8.23;;;;;;;13.47;100.00;99992.97;5048965;28;20037;-72
2022/09/14 04:23:24;;;;;;;9.10;6.80;;;;;;;13.26;100.00;99986.97;5048989;28;20116;-71
2022/09/14 04:25:50;;;;;;;9.77;6.15;;;;;;;12.61;100.00;99960.53;5049745;28;20190;-71
2022/09/14 04:28:15;;;;;;;9.32;5.78;;;;;;;12.95;100.00;99955.84;5052784;28;20267;-71
2022/09/14 04:30:41;;;;;;;11.02;5.55;;;;;;;12.93;100.00;99949.97;5051860;28;20036;-70
2022/09/14 04:33:07;;;;;;;11.23;5.45;;;;;;;13.30;100.00;100021.72;5054922;28;20025;-69
2022/09/14 04:35:32;;;;;;;7.72;4.93;;;;;;;12.77;100.00;99929.28;5052972;28;20025;-70
2022/09/14 04:37:58;;;;;;;8.05;5.00;;;;;;;13.65;100.00;100013.50;5052128;28;20376;-72
2022/09/14 04:40:23;;;;;;;9.95;5.13;;;;;;;13.33;100.00;99973.06;5032713;28;20048;-70
2022/09/14 04:42:48;;;;;;;11.15;5.00;;;;;;;13.49;100.00;100032.88;5031559;28;20188;-70
2022/09/14 04:45:14;;;;;;;6.32;5.68;;;;;;;13.41;100.00;99973.59;5031814;28;20037;-70
2022/09/14 04:47:39;;;;;;;10.82;6.03;;;;;;;13.85;100.00;100026.31;5052187;28;20144;-70
2022/09/14 04:50:05;;;;;;;8.98;6.13;;;;;;;13.54;100.00;100032.69;5051255;28;20493;-69
2022/09/14 04:52:30;;;;;;;12.85;5.65;;;;;;;13.17;100.00;99866.53;5034914;28;20029;-70
2022/09/14 04:54:56;;;;;;;9.32;5.40;;;;;;;13.86;100.00;99981.94;5030595;28;20033;-69
2022/09/14 04:57:22;;;;;;;6.22;5.22;;;;;;;13.92;100.00;100021.78;5031954;28;20116;-69
2022/09/14 04:59:47;;;;;;;13.82;5.30;;;;;;;13.60;100.00;99956.66;5039088;28;20036;-70
2022/09/14 05:02:12;;;;;;;8.05;5.38;;;;;;;14.84;100.00;100048.53;5052392;28;20044;-70
2022/09/14 05:04:38;;;;;;;6.85;5.38;;;;;;;14.52;100.00;100003.03;5051750;28;20199;-70
2022/09/14 05:07:03;;;;;;;8.65;5.20;;;;;;;14.73;100.00;100043.06;5044775;28;20491;-71
2022/09/14 06:00:26;;;;;;;10.95;5.25;;;;;;;18.56;100.00;100055.66;5031414;28;20060;-70
2022/09/14 06:02:53;;;;;;;13.88;5.47;;;;;;;18.41;100.00;100059.09;5031455;28;20038;-70
2022/09/14 06:05:19;;;;;;;13.40;4.70;;;;;;;18.55;100.00;100035.97;5031874;28;20156;-69
2022/09/14 06:07:50;;;;;;;7.65;4.47;;;;;;;18.41;100.00;100003.28;5031026;28;20030;-71
2022/09/14 06:10:16;;;;;;;12.18;5.15;;;;;;;19.07;100.00;99993.22;5031576;28;20040;-71
2022/09/14 06:12:42;;;;;;;17.73;6.40;;;;;;;18.73;100.00;100003.94;5030084;28;20033;-70
2022/09/14 06:15:07;;;;;;;11.35;4.70;;;;;;;18.45;100.00;99994.50;5031455;28;20029;-71
2022/09/14 06:17:33;;;;;;;10.38;4.90;;;;;;;18.86;100.00;100048.63;5031404;28;20022;-70
2022/09/14 06:19:58;;;;;;;7.55;4.53;;;;;;;19.29;100.00;100045.09;5031179;28;20112;-69
2022/09/14 06:22:24;;;;;;;11.25;4.88;;;;;;;18.91;100.00;99984.78;5030752;28;20476;-70
2022/09/14 06:24:49;;;;;;;6.85;4.72;;;;;;;18.99;100.00;99942.13;5031130;28;20029;-70
2022/09/14 06:27:15;;;;;;;6.97;4.80;;;;;;;19.56;100.00;100058.84;5031127;28;20032;-70
2022/09/14 06:29:40;;;;;;;6.07;4.50;;;;;;;19.49;100.00;100052.41;5030835;28;20041;-70
2022/09/14 06:32:06;;;;;;;7.00;4.72;;;;;;;19.90;100.00;100070.41;5031140;28;20041;-69
2022/09/14 06:34:31;;;;;;;5.38;4.70;;;;;;;20.21;100.00;100046.03;5030883;28;20029;-70
2022/09/14 06:36:57;;;;;;;9.27;4.97;;;;;;;19.57;100.00;100005.53;5030903;28;20034;-70
2022/09/14 06:39:23;;;;;;;12.27;4.80;;;;;;;20.03;100.00;100060.09;5031061;28;20393;-70
2022/09/14 06:41:50;;;;;;;8.55;4.53;;;;;;;20.54;100.00;100057.50;5030926;28;20161;-69
2022/09/14 06:44:16;;;;;;;7.10;4.50;;;;;;;20.48;100.00;100081.16;5029791;28;20025;-69
2022/09/14 06:46:43;;;;;;;12.48;4.80;;;;;;;20.38;100.00;100074.97;5030972;28;20048;-70
2022/09/14 06:49:12;;;;;;;7.20;4.30;;;;;;;21.01;100.00;100069.81;5030509;28;20033;-69
2022/09/14 06:51:40;;;;;;;10.27;4.65;;;;;;;21.37;100.00;100079.34;5030591;28;20100;-70
2022/09/14 06:54:07;;;;;;;9.43;4.70;;;;;;;21.70;100.00;100082.09;5030809;28;20025;-70
2022/09/14 06:56:35;;;;;;;6.53;4.50;;;;;;;21.56;100.00;100077.91;5029720;28;20040;-69
2022/09/14 06:59:01;;;;;;;8.38;4.95;;;;;;;21.48;100.00;100095.75;5030973;28;20134;-69
2022/09/14 07:01:27;;;;;;;7.00;4.30;;;;;;;20.59;100.00;100015.88;5030768;28;20072;-71
2022/09/14 07:03:53;;;;;;;7.95;4.35;;;;;;;20.94;100.00;100039.25;5030637;28;20030;-70
2022/09/14 07:06:21;;;;;;;10.10;4.40;;;;;;;20.64;100.00;100053.38;5030579;28;20025;-69
2022/09/14 07:08:48;;;;;;;5.65;4.00;;;;;;;21.68;100.00;100036.56;5030753;28;20083;-70
2022/09/14 07:11:16;;;;;;;6.28;3.95;;;;;;;21.57;100.00;100089.06;5030910;28;20033;-70
2022/09/14 07:13:42;;;;;;;5.95;3.70;;;;;;;21.71;100.00;100095.88;5030329;28;20131;-70
2022/09/14 07:16:08;;;;;;;4.13;3.50;;;;;;;22.02;100.00;100034.00;5030650;28;20029;-69
2022/09/14 07:18:34;;;;;;;5.22;3.40;;;;;;;22.03;100.00;100096.97;5030638;28;20428;-70
2022/09/14 07:21:10;;;;;;;6.28;3.92;;;;;;;22.96;100.00;100102.84;5030395;28;20033;-70
2022/09/14 07:23:38;;;;;;;6.40;3.22;;;;;;;22.15;100.00;100101.25;5030591;28;20033;-70
2022/09/14 07:26:12;;;;;;;6.25;3.45;;;;;;;22.09;100.00;100027.41;5030158;28;20049;-70
2022/09/14 07:28:38;;;;;;;5.78;3.00;;;;;;;21.89;100.00;100047.97;5030111;28;20177;-69
2022/09/14 07:31:13;;;;;;;3.70;3.17;;;;;;;22.53;98.09;100107.00;5029932;28;20030;-71
2022/09/14 07:33:38;;;;;;;3.38;3.08;;;;;;;23.18;90.91;100091.63;5030897;28;20036;-72
2022/09/14 07:36:08;;;;;;;6.82;3.50;;;;;;;22.99;87.67;100107.78;5030788;28;20117;-70
2022/09/14 07:38:34;;;;;;;7.95;3.88;;;;;;;23.18;89.46;100086.41;5029778;28;20495;-70
2022/09/14 07:41:00;;;;;;;6.93;3.75;;;;;;;23.49;88.60;100101.28;5030687;28;20036;-71
2022/09/14 07:43:26;;;;;;;7.13;2.75;;;;;;;23.57;82.26;100098.06;5030844;28;20385;-70
2022/09/14 07:45:52;;;;;;;6.40;3.00;;;;;;;22.14;90.03;100027.91;5032321;28;20079;-70
2022/09/14 07:48:18;;;;;;;7.43;3.30;;;;;;;23.72;79.79;100082.09;5031221;28;20029;-71
2022/09/14 07:50:43;;;;;;;6.20;2.83;;;;;;;23.46;81.41;100033.19;5029810;28;20029;-72
2022/09/14 07:53:09;;;;;;;6.65;3.30;;;;;;;23.37;81.32;100039.97;5029737;28;20475;-70
2022/09/14 07:55:38;;;;;;;6.55;2.95;;;;;;;24.35;71.30;100072.59;5029943;28;20036;-70
2022/09/14 07:58:03;;;;;;;13.38;6.45;;;;;;;24.72;72.86;100045.16;5029932;28;20060;-70
2022/09/14 08:00:29;;;;;;;5.47;3.25;;;;;;;24.44;71.10;100041.47;5032466;28;20033;-70
2022/09/14 08:02:56;;;;;;;4.43;2.90;;;;;;;24.40;70.52;100086.88;5033746;28;20100;-70
2022/09/14 08:05:22;;;;;;;5.88;2.70;;;;;;;24.00;72.56;100021.75;5033343;28;20037;-70
2022/09/14 08:07:55;;;;;;;4.70;2.90;;;;;;;24.02;66.56;100030.28;5033667;28;20407;-70
2022/09/14 08:10:22;;;;;;;3.53;3.00;;;;;;;24.31;73.56;100037.41;5032023;28;20094;-70
2022/09/14 08:12:53;;;;;;;3.53;2.63;;;;;;;24.31;63.25;100014.84;5031995;28;20076;-71
2022/09/14 08:15:19;;;;;;;4.90;2.53;;;;;;;24.38;63.05;100022.94;5033851;28;20029;-71
2022/09/14 08:17:45;;;;;;;6.90;2.80;;;;;;;24.06;67.99;100026.47;5033507;28;20043;-71
2022/09/14 08:20:10;;;;;;;3.97;2.50;;;;;;;24.45;63.88;100076.06;5033703;28;20120;-71
2022/09/14 08:22:36;;;;;;;4.18;2.40;;;;;;;24.62;59.88;100002.69;5031683;28;20041;-71
2022/09/14 08:25:01;;;;;;;9.32;3.10;;;;;;;24.97;60.68;100057.72;5033584;28;20079;-71
2022/09/14 08:27:27;;;;;;;5.38;2.30;;;;;;;25.63;54.43;99998.94;5065074;28;20119;-71
2022/09/14 08:29:53;;;;;;;4.72;2.22;;;;;;;24.83;59.04;100056.31;5033119;28;20036;-71
2022/09/14 08:32:18;;;;;;;2.70;2.15;;;;;;;24.20;59.36;99999.34;5033134;28;20450;-70
2022/09/14 08:34:44;;;;;;;2.90;2.03;;;;;;;24.55;58.63;99997.16;5032265;28;20034;-73
2022/09/14 08:37:09;;;;;;;6.78;2.63;;;;;;;25.59;56.64;100052.25;5033567;28;20563;-73
2022/09/14 08:39:35;;;;;;;3.70;2.47;;;;;;;25.85;55.06;99953.50;5033207;28;20091;-71
2022/09/14 08:42:02;;;;;;;5.78;2.33;;;;;;;25.76;55.49;100044.59;5033040;28;20115;-71
2022/09/14 08:44:33;;;;;;;4.38;2.60;;;;;;;25.84;55.93;100045.66;5033210;28;20025;-71
2022/09/14 08:47:02;;;;;;;4.43;2.20;;;;;;;25.41;55.19;99970.56;5031688;28;20029;-70
2022/09/14 08:49:50;;;;;;;3.03;2.33;;;;;;;24.86;57.02;100042.19;5031704;28;20056;-70
2022/09/14 08:52:19;;;;;;;4.97;2.08;;;;;;;25.12;54.28;100045.16;5033042;28;20415;-70
2022/09/14 08:54:46;;;;;;;8.20;2.40;;;;;;;25.89;56.92;100030.44;5031025;28;20029;-70
2022/09/14 08:57:17;;;;;;;4.30;2.10;;;;;;;25.55;52.74;99978.75;5032752;28;20032;-72
2022/09/14 09:00:01;;;;;;;4.97;2.10;;;;;;;27.06;50.28;100032.41;5031212;28;20044;-71
2022/09/14 09:02:50;;;;;;;5.18;2.08;;;;;;;26.26;50.51;99963.56;5033022;28;20033;-70
2022/09/14 09:08:01;;;;;;;6.70;2.33;;;;;;;27.46;48.23;100032.06;4103523;23;10000091;-72
2022/09/14 09:10:29;;;;;;;4.18;2.15;;;;;;;26.51;48.68;100000.25;5012240;28;20076;-73
2022/09/14 09:12:58;;;;;;;5.85;2.30;;;;;;;27.71;46.50;99993.91;5013352;28;20092;-74
2022/09/14 09:15:25;;;;;;;4.88;2.20;;;;;;;27.08;47.58;99998.31;5012197;28;20061;-72
2022/09/14 09:18:03;;;;;;;7.90;2.38;;;;;;;27.00;48.49;100032.22;5013420;28;20462;-73
2022/09/14 09:20:32;;;;;;;4.30;2.08;;;;;;;27.00;46.44;99965.13;5014000;28;20128;-74
2022/09/14 09:23:12;;;;;;;6.90;2.03;;;;;;;27.16;47.25;100025.34;5011889;28;20037;-73
2022/09/14 09:25:50;;;;;;;2.35;1.80;;;;;;;27.75;44.91;99997.84;5012478;28;20037;-73
2022/09/14 09:28:17;;;;;;;4.95;2.15;;;;;;;26.82;48.41;100024.31;5012591;28;20065;-70
2022/09/14 09:30:44;;;;;;;3.45;1.85;;;;;;;26.81;45.76;100014.03;5011812;28;20040;-75
2022/09/14 09:33:28;;;;;;;2.17;1.98;;;;;;;27.25;45.05;100008.81;5012347;28;20088;-72
2022/09/14 09:35:54;;;;;;;3.63;1.90;;;;;;;26.76;45.06;99977.91;5009564;28;20037;-73
2022/09/14 09:38:25;;;;;;;3.22;1.95;;;;;;;28.18;45.75;100001.28;5012543;28;20120;-73
2022/09/14 09:41:16;;;;;;;3.50;2.00;;;;;;;26.69;45.66;99997.69;5011835;28;20495;-74
2022/09/14 09:44:08;;;;;;;4.13;1.88;;;;;;;27.21;45.28;99999.63;5012314;28;20084;-74
2022/09/14 09:46:37;;;;;;;6.50;1.75;;;;;;;27.16;45.72;99994.03;5011329;28;20021;-75
2022/09/14 09:49:29;;;;;;;8.38;1.85;;;;;;;27.86;43.36;99950.53;5002593;28;20053;-74
2022/09/14 09:51:55;;;;;;;3.65;2.10;;;;;;;27.22;43.95;99988.22;5026844;28;20032;-74
2022/09/14 09:54:28;;;;;;;4.47;1.80;;;;;;;27.69;44.57;99990.63;5011504;28;20113;-75
2022/09/14 09:56:53;;;;;;;3.75;2.28;;;;;;;28.75;44.25;99989.31;5013723;28;20030;-75
2022/09/14 09:59:34;;;;;;;3.67;2.17;;;;;;;28.21;42.80;99989.69;5013428;28;20091;-75
2022/09/14 10:02:25;;;;;;;4.80;2.30;;;;;;;29.21;42.79;99984.53;5012293;28;20103;-75
2022/09/14 10:05:07;;;;;;;2.60;1.98;;;;;;;28.87;42.52;99984.59;5011594;28;20095;-74
2022/09/14 10:07:38;;;;;;;2.72;2.08;;;;;;;28.69;40.89;99957.72;5012395;28;20048;-75
2022/09/14 10:10:03;;;;;;;2.65;2.33;;;;;;;29.17;41.49;99984.06;5011286;28;20186;-73
2022/09/14 10:12:29;;;;;;;4.38;1.92;;;;;;;28.93;41.93;99976.13;5010885;28;20446;-73
2022/09/14 10:15:15;;;;;;;5.38;1.85;;;;;;;29.41;40.83;99978.03;5011842;28;20424;-75
2022/09/14 10:18:01;;;;;;;3.03;1.92;;;;;;;28.63;39.99;99971.44;5012289;28;20030;-75
2022/09/14 10:20:27;;;;;;;3.53;1.90;;;;;;;28.05;41.40;99969.47;5013000;28;20484;-74
2022/09/14 10:22:52;;;;;;;2.95;1.90;;;;;;;28.74;41.47;99944.97;5011265;28;20087;-74
2022/09/14 10:25:18;;;;;;;3.67;1.80;;;;;;;28.34;43.04;99960.50;5012245;28;20025;-74
2022/09/14 10:27:53;;;;;;;5.85;1.52;;;;;;;28.19;40.53;99942.75;5012323;28;20029;-74
2022/09/14 10:30:22;;;;;;;3.83;2.00;;;;;;;28.76;41.87;99961.34;5012327;28;20147;-75
2022/09/14 10:32:59;;;;;;;3.22;2.10;;;;;;;29.33;41.48;99954.44;5013024;28;20029;-73
2022/09/14 10:35:33;;;;;;;3.80;1.88;;;;;;;29.27;41.06;99952.47;5012376;28;20025;-74
2022/09/14 10:38:17;;;;;;;3.53;1.98;;;;;;;29.33;40.08;99955.25;5012647;28;20087;-73
2022/09/14 10:40:46;;;;;;;3.65;1.98;;;;;;;29.19;41.14;99923.63;5012185;28;20609;-74
2022/09/14 10:43:19;;;;;;;3.20;2.33;;;;;;;27.67;41.91;99963.81;5013083;28;20034;-73
2022/09/14 10:45:47;;;;;;;3.88;2.30;;;;;;;28.40;41.14;99957.25;5012183;28;20053;-73
2022/09/14 10:48:28;;;;;;;2.90;1.80;;;;;;;28.69;40.12;99921.88;5010941;28;20030;-74
2022/09/14 10:51:06;;;;;;;4.22;1.75;;;;;;;28.66;39.46;99947.56;5011720;28;20492;-74
2022/09/14 10:53:35;;;;;;;3.05;1.83;;;;;;;29.48;39.62;99955.41;5010877;28;20072;-74
2022/09/14 10:56:03;;;;;;;2.65;1.80;;;;;;;28.53;39.49;99947.97;5010611;28;20106;-73
2022/09/14 10:58:41;;;;;;;2.28;1.60;;;;;;;29.46;39.56;99946.88;5010882;28;20091;-73
2022/09/14 11:01:13;;;;;;;4.25;1.70;;;;;;;29.65;39.82;99954.44;5011965;28;20448;-75
2022/09/14 11:03:53;;;;;;;2.85;1.40;;;;;;;29.11;39.37;99956.69;5012534;28;20034;-74
2022/09/14 11:06:36;;;;;;;2.85;1.92;;;;;;;28.39;39.58;99956.41;5010878;28;20187;-74
2022/09/14 11:09:04;;;;;;;1.95;1.20;;;;;;;29.26;38.63;99954.25;5011879;28;20046;-75
2022/09/14 11:11:41;;;;;;;2.13;1.50;;;;;;;29.47;40.64;99935.44;5012006;28;20384;-74
2022/09/14 11:14:25;;;;;;;4.53;2.58;;;;;;;29.80;38.07;99937.06;5011760;28;20029;-74
2022/09/14 11:17:11;;;;;;;3.50;1.50;;;;;;;28.98;40.10;99930.13;5011520;28;20038;-74
2022/09/14 11:19:54;;;;;;;3.90;1.50;;;;;;;28.63;39.09;99933.00;5011806;28;20105;-74
2022/09/14 11:22:49;;;;;;;2.65;1.70;;;;;;;28.61;39.38;99928.88;5010404;28;20450;-74
2022/09/14 11:25:22;;;;;;;4.80;1.58;;;;;;;27.91;38.78;99932.63;5011625;28;20029;-74
2022/09/14 11:27:54;;;;;;;4.38;1.50;;;;;;;29.10;38.13;99913.13;5011791;28;20040;-74
2022/09/14 11:30:31;;;;;;;2.92;1.50;;;;;;;29.33;38.20;99918.56;5010566;28;20084;-74
2022/09/14 11:33:06;;;;;;;3.22;1.77;;;;;;;29.29;37.72;99887.63;5011338;28;20033;-74
2022/09/14 11:35:43;;;;;;;3.15;1.50;;;;;;;29.70;36.63;99915.41;5014504;28;20064;-74
2022/09/14 11:38:12;;;;;;;2.40;1.30;;;;;;;29.35;37.05;99921.84;5014213;28;20088;-74
2022/09/14 11:40:53;;;;;;;2.20;1.60;;;;;;;30.38;36.99;99916.59;5014083;28;20546;-74
2022/09/14 11:43:36;;;;;;;8.88;1.95;;;;;;;29.13;37.78;99885.78;5014286;28;20044;-74
2022/09/14 11:46:23;;;;;;;4.68;1.63;;;;;;;30.39;37.36;99914.75;5014402;28;20038;-73
2022/09/14 11:49:21;;;;;;;2.72;1.48;;;;;;;29.44;36.74;99907.75;5015372;28;20033;-74
2022/09/14 11:52:01;;;;;;;5.30;1.65;;;;;;;29.79;36.89;99906.59;5014899;28;20030;-74
2022/09/14 11:54:27;;;;;;;3.47;1.67;;;;;;;29.77;35.54;99908.56;5015145;28;20053;-73
2022/09/14 11:57:03;;;;;;;4.28;1.75;;;;;;;30.09;36.52;99881.41;4997464;28;20038;-73
2022/09/14 11:59:40;;;;;;;1.58;1.30;;;;;;;29.87;34.67;99893.47;5014128;28;20030;-73
2022/09/14 12:02:24;;;;;;;3.17;1.42;;;;;;;29.54;35.09;99884.81;5013928;28;20033;-74
2022/09/14 12:05:05;;;;;;;3.10;1.10;;;;;;;29.90;35.11;99861.63;5013589;28;20083;-74
2022/09/14 12:08:01;;;;;;;2.03;1.33;;;;;;;29.65;34.63;99860.84;5014600;28;20050;-75
2022/09/14 12:10:28;;;;;;;1.70;1.20;;;;;;;29.04;35.63;99843.03;5013969;28;20038;-74
2022/09/14 12:13:05;;;;;;;4.63;2.05;;;;;;;29.64;35.54;99863.63;5014795;28;20030;-73
2022/09/14 12:15:35;;;;;;;2.95;1.38;;;;;;;30.20;35.97;99804.94;5015003;28;20025;-73
2022/09/14 12:18:04;;;;;;;2.43;1.10;;;;;;;29.94;35.67;99844.56;5013464;28;20111;-75
2022/09/14 12:20:39;;;;;;;2.47;1.35;;;;;;;29.62;36.09;99831.53;5014642;28;20293;-74
2022/09/14 12:23:04;;;;;;;2.67;1.58;;;;;;;29.67;35.51;99839.72;5014524;28;20026;-75
2022/09/14 12:25:30;;;;;;;2.00;1.30;;;;;;;29.99;35.04;99844.88;5013534;28;20120;-74
2022/09/14 12:27:55;;;;;;;2.60;1.38;;;;;;;29.74;34.39;99824.97;5014680;28;20030;-73
2022/09/14 12:30:39;;;;;;;4.05;1.30;;;;;;;30.01;33.56;99831.59;5012992;28;20484;-73
2022/09/14 12:33:42;;;;;;;6.43;1.60;;;;;;;30.03;32.94;99824.38;5013779;28;20025;-73
2022/09/14 12:36:09;;;;;;;2.20;1.05;;;;;;;29.83;32.93;99831.84;5012972;28;20125;-74